KWHP/WHP METAR and TAF weather

Enter ICAO airport designator
Station Type Date Time Source
KWHP METAR 2019/08/22 03:00 UTC NOAA

KWHP 220300Z 08004KT 10SM SKC 29/09 A2982


Station Type Date Time Source
KWHP Decoded METAR 2019/08/22 03:00 UTC NOAA

Station name not available
Aug 21, 2019 - 11:00 PM EDT / 2019.08.22 0300 UTC
Wind: from the E (080 degrees) at 5 MPH (4 KT):0
Visibility: 10 mile(s):0
Sky conditions: clear
Temperature: 84 F (29 C)
Dew Point: 48 F (9 C)
Relative Humidity: 28%
Pressure (altimeter): 29.82 in. Hg (1009 hPa)
ob: KWHP 220300Z 08004KT 10SM SKC 29/09 A2982
cycle: 3

Station Type Date Time Source
KWHP TAF UTC NOAA

Error!

Example: see airport list